sensor_id;sensor_type;location;lat;lon;timestamp;P1;durP1;ratioP1;P2;durP2;ratioP2
18383;SDS011;9318;48.644;9.456;2022-12-07T00:01:20;11.10;;;6.27;;
18383;SDS011;9318;48.644;9.456;2022-12-07T00:03:50;13.10;;;6.63;;
18383;SDS011;9318;48.644;9.456;2022-12-07T00:06:18;11.00;;;6.50;;
18383;SDS011;9318;48.644;9.456;2022-12-07T00:08:46;11.67;;;5.97;;
18383;SDS011;9318;48.644;9.456;2022-12-07T00:11:14;11.73;;;6.10;;
18383;SDS011;9318;48.644;9.456;2022-12-07T00:13:43;11.47;;;6.33;;
18383;SDS011;9318;48.644;9.456;2022-12-07T00:16:13;14.20;;;6.47;;
18383;SDS011;9318;48.644;9.456;2022-12-07T00:18:42;11.77;;;5.93;;
18383;SDS011;9318;48.644;9.456;2022-12-07T00:21:10;13.40;;;6.70;;
18383;SDS011;9318;48.644;9.456;2022-12-07T00:23:39;12.33;;;6.30;;
18383;SDS011;9318;48.644;9.456;2022-12-07T00:26:08;12.50;;;5.90;;
18383;SDS011;9318;48.644;9.456;2022-12-07T00:28:36;12.40;;;6.70;;
18383;SDS011;9318;48.644;9.456;2022-12-07T00:31:04;14.87;;;7.10;;
18383;SDS011;9318;48.644;9.456;2022-12-07T00:33:34;12.07;;;6.03;;
18383;SDS011;9318;48.644;9.456;2022-12-07T00:36:02;12.23;;;6.53;;
18383;SDS011;9318;48.644;9.456;2022-12-07T00:38:32;12.00;;;6.23;;
18383;SDS011;9318;48.644;9.456;2022-12-07T00:41:01;10.67;;;5.87;;
18383;SDS011;9318;48.644;9.456;2022-12-07T00:43:31;14.30;;;6.27;;
18383;SDS011;9318;48.644;9.456;2022-12-07T00:45:58;11.50;;;5.97;;
18383;SDS011;9318;48.644;9.456;2022-12-07T00:48:25;11.67;;;5.97;;
18383;SDS011;9318;48.644;9.456;2022-12-07T00:50:54;12.37;;;6.43;;
18383;SDS011;9318;48.644;9.456;2022-12-07T00:53:21;13.20;;;6.27;;
18383;SDS011;9318;48.644;9.456;2022-12-07T00:55:48;13.10;;;6.60;;
18383;SDS011;9318;48.644;9.456;2022-12-07T00:58:17;12.90;;;6.57;;
18383;SDS011;9318;48.644;9.456;2022-12-07T01:00:45;16.47;;;7.30;;
18383;SDS011;9318;48.644;9.456;2022-12-07T01:03:12;14.43;;;7.10;;
18383;SDS011;9318;48.644;9.456;2022-12-07T01:05:48;13.60;;;6.93;;
18383;SDS011;9318;48.644;9.456;2022-12-07T01:08:18;12.53;;;6.30;;
18383;SDS011;9318;48.644;9.456;2022-12-07T01:10:45;12.47;;;6.57;;
18383;SDS011;9318;48.644;9.456;2022-12-07T01:13:13;10.70;;;5.80;;
18383;SDS011;9318;48.644;9.456;2022-12-07T01:15:40;11.77;;;6.30;;
18383;SDS011;9318;48.644;9.456;2022-12-07T01:18:09;10.13;;;5.87;;
18383;SDS011;9318;48.644;9.456;2022-12-07T01:20:36;10.97;;;6.53;;
18383;SDS011;9318;48.644;9.456;2022-12-07T01:23:03;9.90;;;6.03;;
18383;SDS011;9318;48.644;9.456;2022-12-07T01:25:32;10.80;;;6.23;;
18383;SDS011;9318;48.644;9.456;2022-12-07T01:27:59;11.73;;;6.03;;
18383;SDS011;9318;48.644;9.456;2022-12-07T01:30:28;11.83;;;6.13;;
18383;SDS011;9318;48.644;9.456;2022-12-07T01:32:55;11.10;;;6.13;;
18383;SDS011;9318;48.644;9.456;2022-12-07T01:35:22;12.63;;;6.47;;
18383;SDS011;9318;48.644;9.456;2022-12-07T01:37:49;12.70;;;6.23;;
18383;SDS011;9318;48.644;9.456;2022-12-07T01:40:16;10.27;;;5.73;;
18383;SDS011;9318;48.644;9.456;2022-12-07T01:42:45;12.03;;;5.93;;
18383;SDS011;9318;48.644;9.456;2022-12-07T01:48:03;10.90;;;5.40;;
18383;SDS011;9318;48.644;9.456;2022-12-07T01:50:32;10.57;;;6.17;;
18383;SDS011;9318;48.644;9.456;2022-12-07T01:53:01;10.77;;;5.70;;
18383;SDS011;9318;48.644;9.456;2022-12-07T01:55:32;10.83;;;6.03;;
18383;SDS011;9318;48.644;9.456;2022-12-07T01:58:01;9.70;;;5.83;;
18383;SDS011;9318;48.644;9.456;2022-12-07T02:00:29;9.90;;;5.80;;
18383;SDS011;9318;48.644;9.456;2022-12-07T02:02:58;12.27;;;5.87;;
18383;SDS011;9318;48.644;9.456;2022-12-07T02:05:30;12.80;;;7.03;;
18383;SDS011;9318;48.644;9.456;2022-12-07T02:07:59;13.53;;;6.20;;
18383;SDS011;9318;48.644;9.456;2022-12-07T02:10:27;11.33;;;6.63;;
18383;SDS011;9318;48.644;9.456;2022-12-07T02:12:57;14.10;;;7.17;;
18383;SDS011;9318;48.644;9.456;2022-12-07T02:15:28;15.10;;;7.30;;
18383;SDS011;9318;48.644;9.456;2022-12-07T02:18:05;14.33;;;7.50;;
18383;SDS011;9318;48.644;9.456;2022-12-07T02:20:38;15.87;;;8.20;;
18383;SDS011;9318;48.644;9.456;2022-12-07T02:23:23;13.73;;;7.43;;
18383;SDS011;9318;48.644;9.456;2022-12-07T02:26:19;13.63;;;7.60;;
18383;SDS011;9318;48.644;9.456;2022-12-07T02:29:11;16.17;;;8.17;;
18383;SDS011;9318;48.644;9.456;2022-12-07T02:31:44;16.23;;;8.43;;
18383;SDS011;9318;48.644;9.456;2022-12-07T02:34:19;16.10;;;7.90;;
18383;SDS011;9318;48.644;9.456;2022-12-07T02:36:53;15.00;;;7.83;;
18383;SDS011;9318;48.644;9.456;2022-12-07T02:39:26;16.23;;;7.57;;
18383;SDS011;9318;48.644;9.456;2022-12-07T02:41:58;16.83;;;8.40;;
18383;SDS011;9318;48.644;9.456;2022-12-07T02:44:31;18.67;;;9.03;;
18383;SDS011;9318;48.644;9.456;2022-12-07T02:47:01;15.37;;;7.93;;
18383;SDS011;9318;48.644;9.456;2022-12-07T02:49:32;17.30;;;8.10;;
18383;SDS011;9318;48.644;9.456;2022-12-07T02:51:59;19.90;;;8.50;;
18383;SDS011;9318;48.644;9.456;2022-12-07T02:54:27;17.47;;;8.60;;
18383;SDS011;9318;48.644;9.456;2022-12-07T02:56:56;17.03;;;7.90;;
18383;SDS011;9318;48.644;9.456;2022-12-07T02:59:35;17.63;;;8.83;;
18383;SDS011;9318;48.644;9.456;2022-12-07T03:02:15;19.10;;;8.67;;
18383;SDS011;9318;48.644;9.456;2022-12-07T03:04:52;16.07;;;8.13;;
18383;SDS011;9318;48.644;9.456;2022-12-07T03:07:29;18.30;;;8.43;;
18383;SDS011;9318;48.644;9.456;2022-12-07T03:10:03;17.77;;;8.00;;
18383;SDS011;9318;48.644;9.456;2022-12-07T03:12:36;18.17;;;8.43;;
18383;SDS011;9318;48.644;9.456;2022-12-07T03:15:12;17.50;;;8.73;;
18383;SDS011;9318;48.644;9.456;2022-12-07T03:17:43;17.17;;;8.57;;
18383;SDS011;9318;48.644;9.456;2022-12-07T03:20:13;18.53;;;8.73;;
18383;SDS011;9318;48.644;9.456;2022-12-07T03:22:45;19.30;;;8.63;;
18383;SDS011;9318;48.644;9.456;2022-12-07T03:25:14;16.13;;;8.00;;
18383;SDS011;9318;48.644;9.456;2022-12-07T03:27:56;20.07;;;9.13;;
18383;SDS011;9318;48.644;9.456;2022-12-07T03:30:32;17.83;;;8.10;;
18383;SDS011;9318;48.644;9.456;2022-12-07T03:33:03;16.23;;;7.87;;
18383;SDS011;9318;48.644;9.456;2022-12-07T03:35:36;18.43;;;8.50;;
18383;SDS011;9318;48.644;9.456;2022-12-07T03:38:08;19.63;;;9.23;;
18383;SDS011;9318;48.644;9.456;2022-12-07T03:40:43;19.23;;;8.47;;
18383;SDS011;9318;48.644;9.456;2022-12-07T03:43:16;18.20;;;8.63;;
18383;SDS011;9318;48.644;9.456;2022-12-07T03:45:47;20.23;;;8.83;;
18383;SDS011;9318;48.644;9.456;2022-12-07T03:48:25;20.13;;;9.07;;
18383;SDS011;9318;48.644;9.456;2022-12-07T03:51:01;19.37;;;8.57;;
18383;SDS011;9318;48.644;9.456;2022-12-07T03:53:34;18.60;;;8.63;;
18383;SDS011;9318;48.644;9.456;2022-12-07T03:56:06;18.23;;;8.70;;
18383;SDS011;9318;48.644;9.456;2022-12-07T03:58:34;18.90;;;8.53;;
18383;SDS011;9318;48.644;9.456;2022-12-07T04:01:03;19.33;;;8.57;;
18383;SDS011;9318;48.644;9.456;2022-12-07T04:03:30;20.07;;;9.17;;
18383;SDS011;9318;48.644;9.456;2022-12-07T04:05:58;18.73;;;8.50;;
18383;SDS011;9318;48.644;9.456;2022-12-07T04:08:25;19.83;;;8.23;;
18383;SDS011;9318;48.644;9.456;2022-12-07T04:10:53;18.13;;;8.50;;
18383;SDS011;9318;48.644;9.456;2022-12-07T04:13:20;17.33;;;8.30;;
18383;SDS011;9318;48.644;9.456;2022-12-07T04:15:47;16.67;;;7.73;;
18383;SDS011;9318;48.644;9.456;2022-12-07T04:18:15;19.03;;;8.83;;
18383;SDS011;9318;48.644;9.456;2022-12-07T04:20:42;17.17;;;8.13;;
18383;SDS011;9318;48.644;9.456;2022-12-07T04:23:09;18.00;;;8.77;;
18383;SDS011;9318;48.644;9.456;2022-12-07T04:25:36;18.00;;;8.70;;
18383;SDS011;9318;48.644;9.456;2022-12-07T04:28:03;17.07;;;8.20;;
18383;SDS011;9318;48.644;9.456;2022-12-07T04:30:30;19.87;;;8.80;;
18383;SDS011;9318;48.644;9.456;2022-12-07T04:33:00;18.43;;;8.53;;
18383;SDS011;9318;48.644;9.456;2022-12-07T04:35:28;22.70;;;8.67;;
18383;SDS011;9318;48.644;9.456;2022-12-07T04:37:56;16.90;;;8.00;;
18383;SDS011;9318;48.644;9.456;2022-12-07T04:40:22;18.00;;;8.17;;
18383;SDS011;9318;48.644;9.456;2022-12-07T04:42:50;17.23;;;7.40;;
18383;SDS011;9318;48.644;9.456;2022-12-07T04:45:17;18.53;;;8.40;;
18383;SDS011;9318;48.644;9.456;2022-12-07T04:47:44;16.63;;;8.03;;
18383;SDS011;9318;48.644;9.456;2022-12-07T04:50:11;19.50;;;8.70;;
18383;SDS011;9318;48.644;9.456;2022-12-07T04:52:39;18.43;;;8.13;;
18383;SDS011;9318;48.644;9.456;2022-12-07T04:55:06;16.30;;;8.27;;
18383;SDS011;9318;48.644;9.456;2022-12-07T04:57:34;23.17;;;8.70;;
18383;SDS011;9318;48.644;9.456;2022-12-07T05:00:01;16.73;;;8.03;;
18383;SDS011;9318;48.644;9.456;2022-12-07T05:02:28;16.93;;;8.13;;
18383;SDS011;9318;48.644;9.456;2022-12-07T05:04:56;18.67;;;8.07;;
18383;SDS011;9318;48.644;9.456;2022-12-07T05:07:23;16.37;;;8.70;;
18383;SDS011;9318;48.644;9.456;2022-12-07T05:09:51;18.90;;;7.73;;
18383;SDS011;9318;48.644;9.456;2022-12-07T05:12:18;18.03;;;7.80;;
18383;SDS011;9318;48.644;9.456;2022-12-07T05:14:45;18.77;;;8.43;;
18383;SDS011;9318;48.644;9.456;2022-12-07T05:17:12;17.53;;;8.07;;
18383;SDS011;9318;48.644;9.456;2022-12-07T05:19:39;19.83;;;8.27;;
18383;SDS011;9318;48.644;9.456;2022-12-07T05:22:07;17.63;;;8.27;;
18383;SDS011;9318;48.644;9.456;2022-12-07T05:24:34;16.83;;;8.70;;
18383;SDS011;9318;48.644;9.456;2022-12-07T05:27:03;25.07;;;10.60;;
18383;SDS011;9318;48.644;9.456;2022-12-07T05:29:30;17.50;;;8.23;;
18383;SDS011;9318;48.644;9.456;2022-12-07T05:31:58;18.43;;;8.37;;
18383;SDS011;9318;48.644;9.456;2022-12-07T05:34:25;17.33;;;8.07;;
18383;SDS011;9318;48.644;9.456;2022-12-07T05:36:52;20.07;;;9.10;;
18383;SDS011;9318;48.644;9.456;2022-12-07T05:39:20;19.23;;;8.50;;
18383;SDS011;9318;48.644;9.456;2022-12-07T05:41:47;21.87;;;9.23;;
18383;SDS011;9318;48.644;9.456;2022-12-07T05:44:33;17.80;;;8.10;;
18383;SDS011;9318;48.644;9.456;2022-12-07T05:47:00;23.87;;;11.73;;
18383;SDS011;9318;48.644;9.456;2022-12-07T05:49:28;26.27;;;11.37;;
18383;SDS011;9318;48.644;9.456;2022-12-07T05:51:55;23.10;;;9.90;;
18383;SDS011;9318;48.644;9.456;2022-12-07T05:54:22;21.13;;;9.53;;
18383;SDS011;9318;48.644;9.456;2022-12-07T05:56:50;25.07;;;10.87;;
18383;SDS011;9318;48.644;9.456;2022-12-07T05:59:17;20.93;;;10.57;;
18383;SDS011;9318;48.644;9.456;2022-12-07T06:01:51;22.77;;;10.63;;
18383;SDS011;9318;48.644;9.456;2022-12-07T06:04:19;23.67;;;11.47;;
18383;SDS011;9318;48.644;9.456;2022-12-07T06:06:47;22.63;;;10.10;;
18383;SDS011;9318;48.644;9.456;2022-12-07T06:09:14;23.03;;;10.03;;
18383;SDS011;9318;48.644;9.456;2022-12-07T06:11:43;44.67;;;14.53;;
18383;SDS011;9318;48.644;9.456;2022-12-07T06:14:28;23.53;;;10.53;;
18383;SDS011;9318;48.644;9.456;2022-12-07T06:16:57;24.17;;;10.80;;
18383;SDS011;9318;48.644;9.456;2022-12-07T06:19:25;22.17;;;10.37;;
18383;SDS011;9318;48.644;9.456;2022-12-07T06:21:52;20.23;;;9.27;;
18383;SDS011;9318;48.644;9.456;2022-12-07T06:24:20;21.27;;;9.60;;
18383;SDS011;9318;48.644;9.456;2022-12-07T06:26:47;22.90;;;10.30;;
18383;SDS011;9318;48.644;9.456;2022-12-07T06:29:16;23.40;;;9.90;;
18383;SDS011;9318;48.644;9.456;2022-12-07T06:31:43;19.73;;;9.17;;
18383;SDS011;9318;48.644;9.456;2022-12-07T06:34:13;19.30;;;9.03;;
18383;SDS011;9318;48.644;9.456;2022-12-07T06:36:41;20.70;;;8.97;;
18383;SDS011;9318;48.644;9.456;2022-12-07T06:39:09;24.13;;;10.70;;
18383;SDS011;9318;48.644;9.456;2022-12-07T06:41:37;24.27;;;10.67;;
18383;SDS011;9318;48.644;9.456;2022-12-07T06:44:05;21.30;;;9.60;;
18383;SDS011;9318;48.644;9.456;2022-12-07T06:46:33;22.40;;;9.37;;
18383;SDS011;9318;48.644;9.456;2022-12-07T06:49:01;21.33;;;9.60;;
18383;SDS011;9318;48.644;9.456;2022-12-07T06:51:30;20.77;;;9.17;;
18383;SDS011;9318;48.644;9.456;2022-12-07T06:53:58;18.33;;;8.53;;
18383;SDS011;9318;48.644;9.456;2022-12-07T06:56:25;25.77;;;8.60;;
18383;SDS011;9318;48.644;9.456;2022-12-07T06:58:53;21.13;;;9.23;;
18383;SDS011;9318;48.644;9.456;2022-12-07T07:01:20;21.67;;;9.33;;
18383;SDS011;9318;48.644;9.456;2022-12-07T07:03:48;20.83;;;9.10;;
18383;SDS011;9318;48.644;9.456;2022-12-07T07:06:15;21.40;;;8.97;;
18383;SDS011;9318;48.644;9.456;2022-12-07T07:08:44;19.53;;;9.00;;
18383;SDS011;9318;48.644;9.456;2022-12-07T07:11:11;21.00;;;8.73;;
18383;SDS011;9318;48.644;9.456;2022-12-07T07:13:38;22.47;;;8.80;;
18383;SDS011;9318;48.644;9.456;2022-12-07T07:16:06;16.73;;;8.20;;
18383;SDS011;9318;48.644;9.456;2022-12-07T07:18:34;18.77;;;8.33;;
18383;SDS011;9318;48.644;9.456;2022-12-07T07:21:01;18.57;;;8.57;;
18383;SDS011;9318;48.644;9.456;2022-12-07T07:23:29;19.40;;;8.37;;
18383;SDS011;9318;48.644;9.456;2022-12-07T07:25:57;17.60;;;8.30;;
18383;SDS011;9318;48.644;9.456;2022-12-07T07:28:25;18.27;;;8.03;;
18383;SDS011;9318;48.644;9.456;2022-12-07T07:30:52;18.40;;;8.37;;
18383;SDS011;9318;48.644;9.456;2022-12-07T07:33:19;17.93;;;8.30;;
18383;SDS011;9318;48.644;9.456;2022-12-07T07:35:47;19.17;;;8.23;;
18383;SDS011;9318;48.644;9.456;2022-12-07T07:38:14;17.67;;;8.03;;
18383;SDS011;9318;48.644;9.456;2022-12-07T07:40:41;18.43;;;8.57;;
18383;SDS011;9318;48.644;9.456;2022-12-07T07:43:10;17.67;;;8.47;;
18383;SDS011;9318;48.644;9.456;2022-12-07T07:45:37;19.70;;;8.30;;
18383;SDS011;9318;48.644;9.456;2022-12-07T07:48:05;19.70;;;8.33;;
18383;SDS011;9318;48.644;9.456;2022-12-07T07:50:33;19.67;;;8.53;;
18383;SDS011;9318;48.644;9.456;2022-12-07T07:53:00;19.07;;;8.93;;
18383;SDS011;9318;48.644;9.456;2022-12-07T07:55:27;19.27;;;8.40;;
18383;SDS011;9318;48.644;9.456;2022-12-07T07:57:54;20.00;;;8.63;;
18383;SDS011;9318;48.644;9.456;2022-12-07T08:00:23;21.40;;;8.03;;
18383;SDS011;9318;48.644;9.456;2022-12-07T08:02:51;17.27;;;7.90;;
18383;SDS011;9318;48.644;9.456;2022-12-07T08:05:18;18.30;;;7.73;;
18383;SDS011;9318;48.644;9.456;2022-12-07T08:07:46;19.83;;;8.17;;
18383;SDS011;9318;48.644;9.456;2022-12-07T08:10:13;17.07;;;7.50;;
18383;SDS011;9318;48.644;9.456;2022-12-07T08:12:41;17.37;;;7.67;;
18383;SDS011;9318;48.644;9.456;2022-12-07T08:15:24;16.63;;;7.43;;
18383;SDS011;9318;48.644;9.456;2022-12-07T08:17:52;18.63;;;8.40;;
18383;SDS011;9318;48.644;9.456;2022-12-07T08:20:19;16.23;;;7.57;;
18383;SDS011;9318;48.644;9.456;2022-12-07T08:22:47;19.00;;;8.37;;
18383;SDS011;9318;48.644;9.456;2022-12-07T08:25:14;17.43;;;8.27;;
18383;SDS011;9318;48.644;9.456;2022-12-07T08:27:41;17.63;;;8.43;;
18383;SDS011;9318;48.644;9.456;2022-12-07T08:30:09;15.93;;;7.67;;
18383;SDS011;9318;48.644;9.456;2022-12-07T08:32:38;15.60;;;7.17;;
18383;SDS011;9318;48.644;9.456;2022-12-07T08:35:06;16.40;;;7.80;;
18383;SDS011;9318;48.644;9.456;2022-12-07T08:37:34;16.70;;;7.90;;
18383;SDS011;9318;48.644;9.456;2022-12-07T08:40:01;15.93;;;7.30;;
18383;SDS011;9318;48.644;9.456;2022-12-07T08:42:29;17.73;;;7.23;;
18383;SDS011;9318;48.644;9.456;2022-12-07T08:45:03;14.37;;;6.90;;
18383;SDS011;9318;48.644;9.456;2022-12-07T08:47:32;14.30;;;7.03;;
18383;SDS011;9318;48.644;9.456;2022-12-07T08:50:01;15.17;;;7.43;;
18383;SDS011;9318;48.644;9.456;2022-12-07T08:52:30;16.67;;;7.97;;
18383;SDS011;9318;48.644;9.456;2022-12-07T08:54:58;14.60;;;7.30;;
18383;SDS011;9318;48.644;9.456;2022-12-07T08:57:26;16.93;;;7.43;;
18383;SDS011;9318;48.644;9.456;2022-12-07T08:59:54;12.93;;;6.60;;
18383;SDS011;9318;48.644;9.456;2022-12-07T09:02:22;14.73;;;6.90;;
18383;SDS011;9318;48.644;9.456;2022-12-07T09:04:49;13.83;;;6.90;;
18383;SDS011;9318;48.644;9.456;2022-12-07T09:07:17;13.70;;;6.83;;
18383;SDS011;9318;48.644;9.456;2022-12-07T09:09:45;11.23;;;6.17;;
18383;SDS011;9318;48.644;9.456;2022-12-07T09:12:12;12.77;;;6.70;;
18383;SDS011;9318;48.644;9.456;2022-12-07T09:14:39;15.77;;;6.53;;
18383;SDS011;9318;48.644;9.456;2022-12-07T09:17:07;13.80;;;6.40;;
18383;SDS011;9318;48.644;9.456;2022-12-07T09:19:34;13.00;;;6.67;;
18383;SDS011;9318;48.644;9.456;2022-12-07T09:22:02;16.17;;;7.10;;
18383;SDS011;9318;48.644;9.456;2022-12-07T09:24:32;14.67;;;6.77;;
18383;SDS011;9318;48.644;9.456;2022-12-07T09:26:59;14.63;;;6.80;;
18383;SDS011;9318;48.644;9.456;2022-12-07T09:29:27;14.00;;;6.87;;
18383;SDS011;9318;48.644;9.456;2022-12-07T09:31:54;15.57;;;7.03;;
18383;SDS011;9318;48.644;9.456;2022-12-07T09:34:21;15.30;;;7.40;;
18383;SDS011;9318;48.644;9.456;2022-12-07T09:36:48;12.23;;;6.00;;
18383;SDS011;9318;48.644;9.456;2022-12-07T09:39:16;12.40;;;6.57;;
18383;SDS011;9318;48.644;9.456;2022-12-07T09:41:45;13.63;;;6.83;;
18383;SDS011;9318;48.644;9.456;2022-12-07T09:44:13;14.60;;;6.40;;
18383;SDS011;9318;48.644;9.456;2022-12-07T09:46:46;12.93;;;6.50;;
18383;SDS011;9318;48.644;9.456;2022-12-07T09:49:20;12.27;;;6.20;;
18383;SDS011;9318;48.644;9.456;2022-12-07T09:51:59;13.53;;;6.90;;
18383;SDS011;9318;48.644;9.456;2022-12-07T09:54:27;12.77;;;6.30;;
18383;SDS011;9318;48.644;9.456;2022-12-07T09:56:57;12.23;;;6.03;;
18383;SDS011;9318;48.644;9.456;2022-12-07T09:59:25;13.13;;;6.07;;
18383;SDS011;9318;48.644;9.456;2022-12-07T10:01:52;14.40;;;6.73;;
18383;SDS011;9318;48.644;9.456;2022-12-07T10:04:20;13.07;;;6.13;;
18383;SDS011;9318;48.644;9.456;2022-12-07T10:06:50;12.53;;;6.50;;
18383;SDS011;9318;48.644;9.456;2022-12-07T10:09:18;13.20;;;6.60;;
18383;SDS011;9318;48.644;9.456;2022-12-07T10:12:02;12.57;;;6.23;;
18383;SDS011;9318;48.644;9.456;2022-12-07T10:14:35;11.47;;;5.90;;
18383;SDS011;9318;48.644;9.456;2022-12-07T10:17:12;10.90;;;5.67;;
18383;SDS011;9318;48.644;9.456;2022-12-07T10:20:08;10.97;;;5.80;;
18383;SDS011;9318;48.644;9.456;2022-12-07T10:22:56;9.77;;;5.57;;
18383;SDS011;9318;48.644;9.456;2022-12-07T10:25:26;11.63;;;6.17;;
18383;SDS011;9318;48.644;9.456;2022-12-07T10:27:58;9.90;;;5.20;;
18383;SDS011;9318;48.644;9.456;2022-12-07T10:30:28;12.90;;;5.93;;
18383;SDS011;9318;48.644;9.456;2022-12-07T10:32:56;11.27;;;5.10;;
18383;SDS011;9318;48.644;9.456;2022-12-07T10:35:24;9.80;;;5.20;;
18383;SDS011;9318;48.644;9.456;2022-12-07T10:37:53;11.27;;;5.77;;
18383;SDS011;9318;48.644;9.456;2022-12-07T10:40:24;11.20;;;5.00;;
18383;SDS011;9318;48.644;9.456;2022-12-07T10:43:05;10.33;;;5.80;;
18383;SDS011;9318;48.644;9.456;2022-12-07T10:45:44;9.33;;;5.13;;
18383;SDS011;9318;48.644;9.456;2022-12-07T10:48:41;10.63;;;5.73;;
18383;SDS011;9318;48.644;9.456;2022-12-07T10:51:18;9.67;;;5.13;;
18383;SDS011;9318;48.644;9.456;2022-12-07T10:53:53;8.70;;;4.83;;
18383;SDS011;9318;48.644;9.456;2022-12-07T10:56:43;9.83;;;5.20;;
18383;SDS011;9318;48.644;9.456;2022-12-07T10:59:36;10.07;;;5.53;;
18383;SDS011;9318;48.644;9.456;2022-12-07T11:02:25;12.00;;;5.57;;
18383;SDS011;9318;48.644;9.456;2022-12-07T11:05:12;10.70;;;5.10;;
18383;SDS011;9318;48.644;9.456;2022-12-07T11:07:49;9.63;;;4.93;;
18383;SDS011;9318;48.644;9.456;2022-12-07T11:10:23;9.17;;;5.03;;
18383;SDS011;9318;48.644;9.456;2022-12-07T11:13:00;9.50;;;4.77;;
18383;SDS011;9318;48.644;9.456;2022-12-07T11:15:43;7.50;;;4.53;;
18383;SDS011;9318;48.644;9.456;2022-12-07T11:18:22;13.00;;;5.30;;
18383;SDS011;9318;48.644;9.456;2022-12-07T11:20:53;13.17;;;5.03;;
18383;SDS011;9318;48.644;9.456;2022-12-07T11:23:31;9.37;;;5.07;;
18383;SDS011;9318;48.644;9.456;2022-12-07T11:26:11;9.37;;;5.10;;
18383;SDS011;9318;48.644;9.456;2022-12-07T11:28:55;8.50;;;4.83;;
18383;SDS011;9318;48.644;9.456;2022-12-07T11:31:35;10.67;;;5.17;;
18383;SDS011;9318;48.644;9.456;2022-12-07T11:34:12;9.80;;;5.17;;
18383;SDS011;9318;48.644;9.456;2022-12-07T11:36:45;12.40;;;5.37;;
18383;SDS011;9318;48.644;9.456;2022-12-07T11:39:18;8.27;;;4.77;;
18383;SDS011;9318;48.644;9.456;2022-12-07T11:41:52;10.60;;;5.50;;
18383;SDS011;9318;48.644;9.456;2022-12-07T11:44:29;9.70;;;4.87;;
18383;SDS011;9318;48.644;9.456;2022-12-07T11:47:02;10.30;;;5.27;;
18383;SDS011;9318;48.644;9.456;2022-12-07T11:49:40;9.93;;;5.20;;
18383;SDS011;9318;48.644;9.456;2022-12-07T11:52:13;13.13;;;5.70;;
18383;SDS011;9318;48.644;9.456;2022-12-07T11:54:49;9.67;;;4.97;;
18383;SDS011;9318;48.644;9.456;2022-12-07T11:57:20;10.07;;;5.70;;
18383;SDS011;9318;48.644;9.456;2022-12-07T11:59:52;10.47;;;5.57;;
18383;SDS011;9318;48.644;9.456;2022-12-07T12:02:28;11.73;;;5.33;;
18383;SDS011;9318;48.644;9.456;2022-12-07T12:05:05;9.97;;;5.50;;
18383;SDS011;9318;48.644;9.456;2022-12-07T12:07:40;11.47;;;5.33;;
18383;SDS011;9318;48.644;9.456;2022-12-07T12:10:14;11.33;;;5.40;;
18383;SDS011;9318;48.644;9.456;2022-12-07T12:15:51;9.63;;;5.50;;
18383;SDS011;9318;48.644;9.456;2022-12-07T12:21:25;9.60;;;5.30;;
18383;SDS011;9318;48.644;9.456;2022-12-07T12:23:55;10.90;;;5.47;;
18383;SDS011;9318;48.644;9.456;2022-12-07T12:26:27;12.17;;;5.80;;
18383;SDS011;9318;48.644;9.456;2022-12-07T12:28:58;10.07;;;5.23;;
18383;SDS011;9318;48.644;9.456;2022-12-07T12:31:37;11.70;;;5.40;;
18383;SDS011;9318;48.644;9.456;2022-12-07T12:37:13;10.67;;;4.93;;
18383;SDS011;9318;48.644;9.456;2022-12-07T12:58:44;10.63;;;5.07;;
18383;SDS011;9318;48.644;9.456;2022-12-07T13:04:17;8.30;;;4.40;;
18383;SDS011;9318;48.644;9.456;2022-12-07T13:07:01;11.27;;;4.70;;
18383;SDS011;9318;48.644;9.456;2022-12-07T13:09:28;8.60;;;4.93;;
18383;SDS011;9318;48.644;9.456;2022-12-07T13:11:59;9.47;;;5.00;;
18383;SDS011;9318;48.644;9.456;2022-12-07T13:23:25;10.37;;;5.13;;
18383;SDS011;9318;48.644;9.456;2022-12-07T13:26:00;9.63;;;4.70;;
18383;SDS011;9318;48.644;9.456;2022-12-07T13:28:41;9.27;;;4.57;;
18383;SDS011;9318;48.644;9.456;2022-12-07T13:31:12;7.73;;;4.23;;
18383;SDS011;9318;48.644;9.456;2022-12-07T13:33:47;9.03;;;4.90;;
18383;SDS011;9318;48.644;9.456;2022-12-07T13:36:17;10.03;;;5.10;;
18383;SDS011;9318;48.644;9.456;2022-12-07T13:38:53;10.47;;;4.97;;
18383;SDS011;9318;48.644;9.456;2022-12-07T13:41:22;11.47;;;5.27;;
18383;SDS011;9318;48.644;9.456;2022-12-07T13:43:52;13.20;;;5.67;;
18383;SDS011;9318;48.644;9.456;2022-12-07T13:46:27;11.30;;;5.47;;
18383;SDS011;9318;48.644;9.456;2022-12-07T13:49:02;9.03;;;5.20;;
18383;SDS011;9318;48.644;9.456;2022-12-07T13:51:43;10.23;;;5.30;;
18383;SDS011;9318;48.644;9.456;2022-12-07T13:54:13;9.87;;;5.10;;
18383;SDS011;9318;48.644;9.456;2022-12-07T13:56:40;8.83;;;4.70;;
18383;SDS011;9318;48.644;9.456;2022-12-07T13:59:10;10.20;;;4.70;;
18383;SDS011;9318;48.644;9.456;2022-12-07T14:01:41;9.20;;;4.93;;
18383;SDS011;9318;48.644;9.456;2022-12-07T14:04:18;11.00;;;5.00;;
18383;SDS011;9318;48.644;9.456;2022-12-07T14:06:55;9.80;;;5.30;;
18383;SDS011;9318;48.644;9.456;2022-12-07T14:09:25;10.50;;;5.10;;
18383;SDS011;9318;48.644;9.456;2022-12-07T14:11:54;7.87;;;4.63;;
18383;SDS011;9318;48.644;9.456;2022-12-07T14:14:25;9.53;;;5.17;;
18383;SDS011;9318;48.644;9.456;2022-12-07T14:16:58;8.83;;;4.77;;
18383;SDS011;9318;48.644;9.456;2022-12-07T14:22:24;10.60;;;5.20;;
18383;SDS011;9318;48.644;9.456;2022-12-07T14:27:48;12.70;;;6.00;;
18383;SDS011;9318;48.644;9.456;2022-12-07T14:30:21;13.23;;;5.90;;
18383;SDS011;9318;48.644;9.456;2022-12-07T14:32:52;11.97;;;5.63;;
18383;SDS011;9318;48.644;9.456;2022-12-07T14:35:21;10.70;;;6.03;;
18383;SDS011;9318;48.644;9.456;2022-12-07T14:37:48;11.67;;;6.30;;
18383;SDS011;9318;48.644;9.456;2022-12-07T14:40:17;13.80;;;6.20;;
18383;SDS011;9318;48.644;9.456;2022-12-07T14:42:48;12.23;;;6.20;;
18383;SDS011;9318;48.644;9.456;2022-12-07T14:45:20;14.03;;;6.10;;
18383;SDS011;9318;48.644;9.456;2022-12-07T14:47:48;12.30;;;6.87;;
18383;SDS011;9318;48.644;9.456;2022-12-07T14:50:16;11.70;;;5.20;;
18383;SDS011;9318;48.644;9.456;2022-12-07T14:52:45;14.53;;;5.77;;
18383;SDS011;9318;48.644;9.456;2022-12-07T14:55:18;13.93;;;6.33;;
18383;SDS011;9318;48.644;9.456;2022-12-07T14:57:49;12.70;;;6.37;;
18383;SDS011;9318;48.644;9.456;2022-12-07T15:00:17;15.27;;;6.40;;
18383;SDS011;9318;48.644;9.456;2022-12-07T15:02:46;10.33;;;5.60;;
18383;SDS011;9318;48.644;9.456;2022-12-07T15:05:14;11.47;;;6.20;;
18383;SDS011;9318;48.644;9.456;2022-12-07T15:07:42;11.47;;;6.00;;
18383;SDS011;9318;48.644;9.456;2022-12-07T15:10:13;14.03;;;6.30;;
18383;SDS011;9318;48.644;9.456;2022-12-07T15:12:44;13.33;;;6.83;;
18383;SDS011;9318;48.644;9.456;2022-12-07T15:15:12;13.53;;;6.40;;
18383;SDS011;9318;48.644;9.456;2022-12-07T15:17:39;12.43;;;6.23;;
18383;SDS011;9318;48.644;9.456;2022-12-07T15:20:08;14.13;;;6.40;;
18383;SDS011;9318;48.644;9.456;2022-12-07T15:22:38;13.50;;;6.57;;
18383;SDS011;9318;48.644;9.456;2022-12-07T15:25:05;13.67;;;6.37;;
18383;SDS011;9318;48.644;9.456;2022-12-07T15:27:33;14.57;;;6.73;;
18383;SDS011;9318;48.644;9.456;2022-12-07T15:30:02;11.03;;;6.07;;
18383;SDS011;9318;48.644;9.456;2022-12-07T15:32:30;9.83;;;5.70;;
18383;SDS011;9318;48.644;9.456;2022-12-07T15:34:57;10.87;;;5.43;;
18383;SDS011;9318;48.644;9.456;2022-12-07T15:37:24;15.30;;;6.77;;
18383;SDS011;9318;48.644;9.456;2022-12-07T15:39:52;13.20;;;6.20;;
18383;SDS011;9318;48.644;9.456;2022-12-07T15:42:19;11.83;;;6.13;;
18383;SDS011;9318;48.644;9.456;2022-12-07T15:44:46;16.17;;;6.80;;
18383;SDS011;9318;48.644;9.456;2022-12-07T15:47:33;10.03;;;5.30;;
18383;SDS011;9318;48.644;9.456;2022-12-07T15:50:01;10.50;;;5.93;;
18383;SDS011;9318;48.644;9.456;2022-12-07T15:52:30;12.07;;;6.00;;
18383;SDS011;9318;48.644;9.456;2022-12-07T15:54:57;14.27;;;5.63;;
18383;SDS011;9318;48.644;9.456;2022-12-07T15:57:27;10.60;;;5.87;;